BKPR/PRN METAR and TAF weather

Enter ICAO airport designator
Station Type Date Time Source
BKPR METAR 2019/02/23 17:00 UTC NOAA

BKPR 231700Z 01016KT 9999 FEW035 BKN060 M05/M13 Q1032 NOSIG RMK 17010095


Station Type Date Time Source
BKPR Decoded METAR 2019/02/23 17:00 UTC NOAA

Station name not available
Feb 23, 2019 - 12:00 PM EST / 2019.02.23 1700 UTC
Wind: from the N (010 degrees) at 18 MPH (16 KT):0
Visibility: greater than 7 mile(s):0
Sky conditions: mostly cloudy
Temperature: 23 F (-5 C)
Windchill: 8 F (-13 C):1
Dew Point: 8 F (-13 C)
Relative Humidity: 53%
Pressure (altimeter): 30.47 in. Hg (1032 hPa)
ob: BKPR 231700Z 01016KT 9999 FEW035 BKN060 M05/M13 Q1032 NOSIG RMK 17010095
cycle: 17

Station Type Date Time Source
BKPR TAF 2019/02/23 12:30 UTC NOAA

TAF BKPR 231130Z 2312/2412 02015KT 9999 BKN040
TEMPO 2312/2318 02025KT


Example: see airport list